Time;durP1;ratioP1;P1;durP2;ratioP2;P2;SDS_P1;SDS_P2;PMS_P1;PMS_P2;Temp;Humidity;BMP_temperature;BMP_pressure;BME280_temperature;BME280_humidity;BME280_pressure;Samples;Min_cycle;Max_cycle;Signal;HPM_P1;HPM_P2
2022/01/04 00:00:45;;;;;;;13.50;7.70;;;;;;;-6.58;72.66;97785.78;4864405;29;20079;-71
2022/01/04 00:03:10;;;;;;;16.67;7.75;;;;;;;-6.56;72.56;97790.03;4864055;29;20482;-70
2022/01/04 00:05:35;;;;;;;14.05;7.70;;;;;;;-6.56;72.43;97796.97;4880987;29;20411;-69
2022/01/04 00:08:00;;;;;;;14.25;8.15;;;;;;;-6.60;72.91;97799.63;4881124;29;20040;-69
2022/01/04 00:10:26;;;;;;;15.40;8.15;;;;;;;-6.54;72.48;97787.38;4880859;29;20054;-68
2022/01/04 00:15:35;;;;;;;16.55;9.77;;;;;;;-6.66;73.01;97789.47;4880224;29;20099;-69
2022/01/04 00:18:00;;;;;;;17.98;9.00;;;;;;;-6.79;72.83;97788.19;4881135;29;20489;-71
2022/01/04 00:20:25;;;;;;;14.93;8.88;;;;;;;-6.81;72.75;97787.38;4881856;29;20040;-68
2022/01/04 00:22:50;;;;;;;16.25;8.50;;;;;;;-6.81;72.76;97781.34;4864087;29;20083;-67
2022/01/04 00:25:16;;;;;;;17.33;9.27;;;;;;;-6.80;73.19;97788.22;4882258;29;20044;-69
2022/01/04 00:27:41;;;;;;;17.48;9.45;;;;;;;-6.76;73.39;97792.41;4881215;29;20108;-67
2022/01/04 00:30:06;;;;;;;15.32;9.68;;;;;;;-6.70;72.96;97789.63;4880730;29;20055;-68
2022/01/04 00:32:31;;;;;;;16.70;10.13;;;;;;;-6.70;73.34;97798.25;4879898;29;20048;-67
2022/01/04 00:34:56;;;;;;;13.82;8.30;;;;;;;-6.64;73.20;97799.78;4880596;29;20051;-67
2022/01/04 00:37:20;;;;;;;14.55;8.25;;;;;;;-6.63;72.80;97810.09;4880175;29;20531;-66
2022/01/04 00:39:45;;;;;;;15.43;8.63;;;;;;;-6.62;72.93;97813.53;4879398;29;20119;-65
2022/01/04 00:42:10;;;;;;;17.88;9.05;;;;;;;-6.60;73.03;97809.16;4880206;29;20115;-67
2022/01/04 00:44:35;;;;;;;14.77;8.68;;;;;;;-6.56;73.13;97813.34;4880343;29;20104;-67
2022/01/04 00:46:59;;;;;;;16.55;8.48;;;;;;;-6.53;72.92;97807.19;4878301;29;20051;-67
2022/01/04 00:49:29;;;;;;;16.73;8.00;;;;;;;-6.50;72.60;97807.97;4881647;29;20138;-75
2022/01/04 00:51:54;;;;;;;14.07;7.80;;;;;;;-6.47;72.55;97814.78;4863723;29;20044;-69
2022/01/04 00:54:19;;;;;;;13.88;8.30;;;;;;;-6.55;72.57;97816.78;4879401;29;20043;-68
2022/01/04 00:56:45;;;;;;;15.35;7.78;;;;;;;-6.60;72.40;97817.78;4880471;29;20151;-65
2022/01/04 00:59:10;;;;;;;14.70;7.65;;;;;;;-6.57;73.12;97816.00;4879568;29;20044;-68
2022/01/04 01:01:36;;;;;;;13.20;7.85;;;;;;;-6.53;72.64;97817.56;4880476;29;20047;-67
2022/01/04 01:04:02;;;;;;;17.55;9.13;;;;;;;-6.50;72.67;97820.06;4880691;29;20388;-67
2022/01/04 01:06:26;;;;;;;15.10;7.60;;;;;;;-6.48;72.55;97813.94;4863010;29;20044;-67
2022/01/04 01:08:51;;;;;;;13.23;8.13;;;;;;;-6.44;72.09;97820.72;4879691;29;20047;-65
2022/01/04 01:11:17;;;;;;;14.00;7.65;;;;;;;-6.42;71.93;97824.09;4880819;29;20043;-76
2022/01/04 01:13:42;;;;;;;14.40;8.35;;;;;;;-6.40;72.15;97831.81;4881374;29;20036;-74
2022/01/04 01:16:08;;;;;;;13.15;7.97;;;;;;;-6.37;71.73;97819.63;4864431;29;20051;-72
2022/01/04 01:18:35;;;;;;;16.45;9.10;;;;;;;-6.33;71.68;97825.56;4879827;29;20079;-68
2022/01/04 01:21:01;;;;;;;14.35;8.40;;;;;;;-6.29;71.99;97830.56;4879875;29;20121;-74
2022/01/04 01:23:26;;;;;;;10.18;7.10;;;;;;;-6.27;72.01;97826.19;4880085;29;20376;-76
2022/01/04 01:25:51;;;;;;;13.30;8.88;;;;;;;-6.22;71.99;97820.00;4869856;29;20524;-76
2022/01/04 01:28:17;;;;;;;15.70;8.73;;;;;;;-6.21;71.86;97819.97;4863261;29;20063;-74
2022/01/04 01:30:43;;;;;;;14.07;8.63;;;;;;;-6.19;71.09;97817.28;4857846;29;20051;-74
2022/01/04 01:33:09;;;;;;;17.70;9.68;;;;;;;-6.19;71.57;97814.69;4898698;29;20035;-71
2022/01/04 01:35:37;;;;;;;14.70;9.32;;;;;;;-6.18;71.50;97821.59;4899240;29;20188;-74
2022/01/04 01:38:02;;;;;;;13.98;7.85;;;;;;;-6.17;70.97;97820.69;4865772;29;20043;-73
2022/01/04 01:40:27;;;;;;;14.18;8.52;;;;;;;-6.17;71.20;97818.94;4881619;29;20050;-75
2022/01/04 01:42:52;;;;;;;15.95;9.30;;;;;;;-6.16;71.07;97815.47;4882214;29;20043;-74
2022/01/04 01:45:17;;;;;;;17.45;10.30;;;;;;;-6.15;71.29;97822.34;4881680;29;20179;-74
2022/01/04 01:47:44;;;;;;;17.88;9.32;;;;;;;-6.16;71.22;97820.63;4898392;29;20052;-73
2022/01/04 01:50:11;;;;;;;18.00;9.73;;;;;;;-6.16;71.33;97822.38;4898664;29;20054;-74
2022/01/04 01:52:36;;;;;;;17.80;10.15;;;;;;;-6.17;71.31;97820.69;4898975;29;20436;-74
2022/01/04 01:55:02;;;;;;;18.85;9.43;;;;;;;-6.19;70.98;97822.47;4879826;29;20593;-75
2022/01/04 01:57:27;;;;;;;15.60;9.20;;;;;;;-6.20;71.21;97820.78;4866018;29;20043;-74
2022/01/04 01:59:52;;;;;;;16.25;9.27;;;;;;;-6.19;71.67;97830.25;4901304;29;20066;-77
2022/01/04 02:02:17;;;;;;;15.98;9.95;;;;;;;-6.18;71.66;97821.59;4885052;29;20040;-74
2022/01/04 02:04:42;;;;;;;15.27;8.75;;;;;;;-6.15;71.62;97824.09;4902399;29;20354;-71
2022/01/04 02:07:07;;;;;;;16.33;8.82;;;;;;;-6.10;71.72;97829.97;4895362;29;20503;-75
2022/01/04 02:09:34;;;;;;;16.90;8.88;;;;;;;-6.09;71.59;97829.03;4850930;29;20079;-74
2022/01/04 02:11:58;;;;;;;14.10;8.27;;;;;;;-6.08;71.57;97838.53;4883444;29;20044;-76
2022/01/04 02:14:25;;;;;;;17.52;9.18;;;;;;;-6.06;71.42;97831.53;4867312;29;20059;-74
2022/01/04 02:16:51;;;;;;;13.50;8.32;;;;;;;-6.03;71.58;97828.84;4883032;29;20058;-74
2022/01/04 02:19:16;;;;;;;15.73;8.73;;;;;;;-6.01;71.19;97825.31;4865638;29;20104;-74
2022/01/04 02:21:41;;;;;;;17.27;10.48;;;;;;;-5.98;71.42;97829.56;4882705;29;20521;-70
2022/01/04 02:24:06;;;;;;;15.65;9.98;;;;;;;-5.96;71.40;97831.19;4865657;29;20795;-70
2022/01/04 02:26:32;;;;;;;16.95;9.63;;;;;;;-5.96;70.97;97830.31;4865976;29;20074;-70
2022/01/04 02:28:57;;;;;;;13.88;8.65;;;;;;;-5.97;70.46;97837.25;4882682;29;20071;-70
2022/01/04 02:31:22;;;;;;;15.40;9.43;;;;;;;-5.96;70.74;97838.09;4865928;29;20055;-71
2022/01/04 02:33:47;;;;;;;16.35;9.68;;;;;;;-5.94;70.85;97841.50;4865551;29;20052;-69
2022/01/04 02:36:12;;;;;;;15.75;9.13;;;;;;;-5.93;71.15;97832.81;4882590;29;20048;-68
2022/01/04 02:38:37;;;;;;;17.85;8.70;;;;;;;-5.91;71.13;97838.81;4882761;29;20483;-69
2022/01/04 02:41:01;;;;;;;16.88;8.60;;;;;;;-5.91;70.94;97841.41;4882714;29;20422;-67
2022/01/04 02:43:26;;;;;;;18.83;10.82;;;;;;;-5.91;70.54;97849.19;4882451;29;20473;-69
2022/01/04 02:45:51;;;;;;;17.95;8.90;;;;;;;-5.93;70.23;97846.66;4882334;29;20055;-69
2022/01/04 02:48:16;;;;;;;14.68;8.77;;;;;;;-5.94;70.78;97844.09;4882357;29;20044;-69
2022/01/04 02:50:41;;;;;;;16.38;8.93;;;;;;;-5.96;70.13;97844.16;4882332;29;20059;-65
2022/01/04 02:53:05;;;;;;;15.80;9.20;;;;;;;-5.99;70.59;97854.66;4865200;29;20091;-65
2022/01/04 02:55:31;;;;;;;16.88;9.65;;;;;;;-5.99;70.46;97851.22;4834272;29;20051;-64
2022/01/04 02:57:56;;;;;;;14.88;8.93;;;;;;;-5.99;70.12;97853.81;4882329;29;20052;-65
2022/01/04 03:00:23;;;;;;;16.33;10.68;;;;;;;-5.99;70.92;97859.00;4882191;29;20043;-64
2022/01/04 03:02:47;;;;;;;14.30;7.90;;;;;;;-5.97;70.62;97863.19;4833961;29;20104;-64
2022/01/04 03:05:12;;;;;;;14.20;9.23;;;;;;;-5.99;70.52;97862.44;4865376;29;20044;-73
2022/01/04 03:07:37;;;;;;;15.80;9.20;;;;;;;-5.94;70.38;97867.44;4882281;29;20419;-69
2022/01/04 03:10:04;;;;;;;14.38;8.35;;;;;;;-5.91;70.66;97864.75;4881598;29;20273;-68
2022/01/04 03:12:29;;;;;;;21.58;9.68;;;;;;;-5.89;70.61;97868.16;4865166;29;20052;-70
2022/01/04 03:14:53;;;;;;;23.48;11.27;;;;;;;-5.95;69.70;97868.34;4864640;29;20040;-64
2022/01/04 03:17:18;;;;;;;15.85;9.40;;;;;;;-6.03;68.89;97867.75;4881927;29;20424;-65
2022/01/04 03:19:43;;;;;;;16.67;9.55;;;;;;;-6.07;69.41;97873.94;4881499;29;20083;-64
2022/01/04 03:22:08;;;;;;;16.00;10.13;;;;;;;-6.08;69.92;97874.84;4864488;29;20128;-65
2022/01/04 03:24:33;;;;;;;17.45;9.07;;;;;;;-6.08;70.47;97880.03;4864672;29;20139;-64
2022/01/04 03:26:58;;;;;;;14.57;8.75;;;;;;;-6.10;70.74;97874.06;4881783;29;20086;-65
2022/01/04 03:29:23;;;;;;;19.73;10.75;;;;;;;-6.16;70.29;97882.03;4881629;29;20093;-64
2022/01/04 03:31:48;;;;;;;21.30;11.15;;;;;;;-6.20;70.29;97883.03;4886453;29;20047;-65
2022/01/04 03:34:13;;;;;;;19.05;11.23;;;;;;;-6.27;69.59;97872.00;4891505;29;20525;-66
2022/01/04 03:36:39;;;;;;;17.35;10.27;;;;;;;-6.29;69.84;97876.41;4889644;29;20063;-67
2022/01/04 03:39:06;;;;;;;18.98;9.48;;;;;;;-6.29;70.15;97882.44;4890925;29;20043;-66
2022/01/04 03:41:32;;;;;;;23.20;11.15;;;;;;;-6.28;70.58;97878.94;4891023;29;20071;-65
2022/01/04 03:43:57;;;;;;;18.75;10.57;;;;;;;-6.27;70.51;97884.97;4875040;29;20047;-65
2022/01/04 03:46:23;;;;;;;19.70;9.48;;;;;;;-6.26;71.11;97891.88;4875129;29;20052;-65
2022/01/04 03:48:48;;;;;;;15.90;9.60;;;;;;;-6.36;70.49;97893.06;4891965;29;20056;-66
2022/01/04 03:51:12;;;;;;;19.05;10.07;;;;;;;-6.39;70.94;97894.00;4889740;29;20051;-65
2022/01/04 03:53:38;;;;;;;17.63;10.93;;;;;;;-6.37;71.43;97892.22;4891361;29;20057;-64
2022/01/04 03:56:03;;;;;;;17.13;9.65;;;;;;;-6.35;71.44;97893.00;4890275;29;20059;-64
2022/01/04 03:58:28;;;;;;;17.98;9.80;;;;;;;-6.32;71.12;97902.44;4875230;29;20096;-64
2022/01/04 04:00:53;;;;;;;13.93;9.25;;;;;;;-6.29;71.50;97891.97;4892132;29;20083;-65
2022/01/04 04:03:18;;;;;;;18.00;9.68;;;;;;;-6.29;71.10;97902.31;4889670;29;20039;-65
2022/01/04 04:05:43;;;;;;;19.88;9.95;;;;;;;-6.29;71.06;97898.00;4873844;29;20095;-65
2022/01/04 04:08:08;;;;;;;24.90;11.30;;;;;;;-6.30;70.80;97900.63;4873251;29;20040;-64
2022/01/04 04:10:33;;;;;;;16.67;9.73;;;;;;;-6.29;70.77;97892.81;4858899;29;20087;-64
2022/01/04 04:12:57;;;;;;;19.20;11.48;;;;;;;-6.28;71.12;97891.91;4874407;29;20040;-65
2022/01/04 04:15:22;;;;;;;17.38;10.48;;;;;;;-6.30;70.54;97891.09;4871306;29;20093;-66
2022/01/04 11:37:38;;;;;;;35.75;16.13;;;;;;;-5.73;65.55;98105.44;5586996;24;20060;-66
2022/01/04 11:40:23;;;;;;;23.20;10.68;;;;;;;-5.60;66.56;98104.16;4900152;29;20052;-66
2022/01/04 11:42:47;;;;;;;;;;;;;;;-5.54;67.02;98103.97;4900826;29;20462;-65
2022/01/04 11:45:12;;;;;;;;;;;;;;;-5.63;66.91;98101.66;4901069;29;20285;-66
2022/01/04 11:47:38;;;;;;;27.85;13.38;;;;;;;-5.88;67.48;98111.16;4883594;29;19925;-65
2022/01/04 11:50:20;;;;;;;39.83;16.30;;;;;;;-5.93;67.20;98098.31;4900348;29;20044;-66
2022/01/04 11:52:48;;;;;;;26.27;12.23;;;;;;;-5.98;67.75;98104.53;4883042;29;20466;-66
2022/01/04 11:55:26;;;;;;;25.45;11.90;;;;;;;-5.96;67.52;98095.78;4899936;29;20050;-67
2022/01/04 11:57:55;;;;;;;29.52;14.57;;;;;;;-6.07;67.58;98102.19;4900054;29;20146;-67
2022/01/04 12:00:23;;;;;;;21.85;11.10;;;;;;;-6.05;67.95;98108.19;4882693;29;20041;-67
2022/01/04 12:03:02;;;;;;;22.13;10.40;;;;;;;-5.99;68.18;98102.84;4900482;29;20828;-67
2022/01/04 12:05:27;;;;;;;22.83;13.00;;;;;;;-6.13;68.16;98110.19;4899893;29;20047;-67
2022/01/04 12:07:55;;;;;;;31.75;14.48;;;;;;;-6.12;69.13;98111.88;4899645;29;20048;-67
2022/01/04 12:10:19;;;;;;;32.53;15.90;;;;;;;-6.21;68.84;98115.59;4899963;29;20051;-66
2022/01/04 12:13:00;;;;;;;27.13;13.23;;;;;;;-6.10;68.74;98110.94;4899648;29;20088;-66
2022/01/04 12:15:37;;;;;;;25.75;13.55;;;;;;;-6.08;68.89;98122.09;4882854;29;20470;-67
2022/01/04 12:18:02;;;;;;;39.17;15.82;;;;;;;-6.17;68.75;98129.31;4899908;29;20051;-66
2022/01/04 12:20:42;;;;;;;30.38;15.20;;;;;;;-6.11;68.97;98135.19;4899868;29;20043;-66
2022/01/04 12:23:37;;;;;;;30.27;13.73;;;;;;;-5.99;68.83;98128.78;4882458;29;20638;-66
2022/01/04 12:26:11;;;;;;;28.73;14.10;;;;;;;-6.10;67.93;98129.09;4842259;29;20079;-69
2022/01/04 12:28:42;;;;;;;27.92;14.07;;;;;;;-6.11;68.38;98129.13;4883543;29;20093;-67
2022/01/04 12:31:19;;;;;;;30.15;13.63;;;;;;;-6.16;68.33;98131.00;4899156;29;20102;-65
2022/01/04 12:33:45;;;;;;;34.00;12.65;;;;;;;-6.16;68.69;98139.63;4882139;29;20525;-66
2022/01/04 12:36:22;;;;;;;27.23;11.73;;;;;;;-6.05;68.84;98140.19;4899315;29;20138;-68
2022/01/04 12:38:55;;;;;;;26.58;10.65;;;;;;;-6.04;68.42;98133.25;4899137;29;20048;-66
2022/01/04 12:41:22;;;;;;;25.65;11.23;;;;;;;-6.10;68.88;98130.84;4899575;29;20210;-66
2022/01/04 12:43:49;;;;;;;19.20;10.63;;;;;;;-6.14;69.06;98130.06;4881786;29;20039;-66
2022/01/04 12:46:15;;;;;;;23.83;11.57;;;;;;;-6.17;68.61;98121.53;4899641;29;20079;-66
2022/01/04 12:48:50;;;;;;;22.38;10.20;;;;;;;-6.13;68.83;98138.72;4899654;29;20181;-67
2022/01/04 12:51:37;;;;;;;25.52;11.43;;;;;;;-6.09;68.70;98127.31;4899653;29;20054;-67
2022/01/04 12:54:06;;;;;;;20.17;9.23;;;;;;;-6.05;68.88;98124.59;4900284;29;20585;-68
2022/01/04 12:56:32;;;;;;;20.95;9.73;;;;;;;-6.11;68.35;98124.81;4888581;29;20052;-68
2022/01/04 12:58:58;;;;;;;17.77;8.60;;;;;;;-6.16;68.62;98120.63;4863710;29;20549;-67
2022/01/04 13:01:24;;;;;;;26.27;11.50;;;;;;;-6.27;68.47;98124.38;4868015;29;20044;-67
2022/01/04 13:03:49;;;;;;;20.33;9.32;;;;;;;-6.32;69.21;98122.84;4898440;29;20083;-66
2022/01/04 13:06:14;;;;;;;20.90;9.70;;;;;;;-6.33;69.07;98124.56;4898870;29;20486;-68
2022/01/04 13:08:49;;;;;;;30.17;13.90;;;;;;;-6.51;70.01;98140.63;4874027;29;20903;-69
2022/01/04 13:11:14;;;;;;;21.25;8.82;;;;;;;-6.49;70.57;98140.59;4862473;29;20134;-70
2022/01/04 13:13:39;;;;;;;19.48;10.00;;;;;;;-6.38;69.97;98146.31;4879783;29;20123;-71
2022/01/04 13:16:29;;;;;;;22.58;10.57;;;;;;;-6.38;70.08;98130.78;4880031;29;20048;-66
2022/01/04 13:19:18;;;;;;;21.55;10.13;;;;;;;-6.38;69.47;98134.22;4846976;29;20537;-66
2022/01/04 13:22:04;;;;;;;21.55;10.18;;;;;;;-6.42;70.07;98144.69;4862662;29;20043;-66
2022/01/04 13:24:30;;;;;;;13.63;8.10;;;;;;;-6.31;69.64;98145.25;4879198;29;20044;-67
2022/01/04 13:27:29;;;;;;;22.27;9.52;;;;;;;-6.29;69.44;98136.53;4862679;29;20048;-66
2022/01/04 13:29:58;;;;;;;25.35;10.85;;;;;;;-6.36;69.91;98140.22;4880006;29;20146;-68
2022/01/04 13:32:31;;;;;;;17.35;9.40;;;;;;;-6.37;69.75;98137.66;4896772;29;20122;-68
2022/01/04 13:34:59;;;;;;;20.27;11.63;;;;;;;-6.41;69.53;98147.25;4898856;29;20466;-67
2022/01/04 13:37:28;;;;;;;18.85;8.85;;;;;;;-6.39;69.79;98150.66;4865004;29;20486;-67
2022/01/04 13:39:53;;;;;;;16.38;7.70;;;;;;;-6.24;69.93;98149.38;4865838;29;20051;-67
2022/01/04 13:42:34;;;;;;;21.73;12.02;;;;;;;-6.45;69.86;98142.22;4882698;29;20044;-67
2022/01/04 13:45:02;;;;;;;16.65;9.23;;;;;;;-6.42;70.05;98140.38;4866219;29;20044;-67
2022/01/04 13:47:38;;;;;;;19.73;9.95;;;;;;;-6.36;70.44;98148.00;4865886;29;20044;-67
2022/01/04 13:50:16;;;;;;;17.00;8.80;;;;;;;-6.41;69.93;98141.22;4863667;29;20075;-67
2022/01/04 13:52:42;;;;;;;13.35;7.40;;;;;;;-6.27;68.98;98137.34;4862360;29;20107;-67
2022/01/04 13:55:08;;;;;;;20.83;10.18;;;;;;;-6.44;69.37;98142.16;4865591;29;20043;-67
2022/01/04 13:57:33;;;;;;;21.75;9.60;;;;;;;-6.49;69.48;98144.03;4883257;29;20059;-67
2022/01/04 13:59:58;;;;;;;24.10;11.23;;;;;;;-6.43;69.64;98159.41;4883378;29;20040;-67
2022/01/04 14:02:29;;;;;;;15.68;8.55;;;;;;;-6.56;69.52;98145.09;4883066;29;20048;-67
2022/01/04 14:05:15;;;;;;;22.58;10.55;;;;;;;-6.56;70.10;98147.69;4866242;29;20040;-66
2022/01/04 14:07:40;;;;;;;;;;;;;;;-6.32;69.51;98149.56;4850692;29;20455;-67
2022/01/04 14:10:05;;;;;;;19.92;10.18;;;;;;;-6.40;69.12;98150.69;4866205;29;20392;-66
2022/01/04 14:12:29;;;;;;;19.23;9.82;;;;;;;-6.58;69.98;98154.66;4866109;29;20475;-68
2022/01/04 14:14:56;;;;;;;21.77;10.40;;;;;;;-6.47;70.26;98157.81;4866082;29;20595;-66
2022/01/04 14:17:24;;;;;;;23.17;9.55;;;;;;;-6.42;69.67;98145.53;4883070;29;20052;-68
2022/01/04 14:19:53;;;;;;;20.48;9.80;;;;;;;-6.62;70.22;98155.63;4883174;29;20166;-68
2022/01/04 14:22:21;;;;;;;21.92;10.65;;;;;;;-6.69;70.45;98144.56;4865933;29;20044;-69
2022/01/04 14:24:48;;;;;;;26.95;12.80;;;;;;;-6.82;71.04;98148.38;4865658;29;20407;-68
2022/01/04 14:27:38;;;;;;;30.70;13.88;;;;;;;-6.78;70.51;98154.34;4866002;29;20149;-67
2022/01/04 14:30:11;;;;;;;24.90;11.30;;;;;;;-6.63;70.09;98161.69;4865585;29;20040;-65
2022/01/04 14:32:43;;;;;;;22.77;11.27;;;;;;;-6.58;69.81;98164.16;4881820;29;20134;-62
2022/01/04 14:35:26;;;;;;;24.45;11.70;;;;;;;-6.62;70.02;98164.25;4883013;29;20192;-63
2022/01/04 14:37:54;;;;;;;23.50;11.13;;;;;;;-6.49;69.69;98159.59;4882439;29;20064;-64
2022/01/04 14:40:24;;;;;;;17.02;8.60;;;;;;;-6.46;69.56;98154.31;4882675;29;20131;-64
2022/01/04 14:42:52;;;;;;;25.48;11.82;;;;;;;-6.63;69.86;98151.31;4865759;29;20483;-64
2022/01/04 14:45:19;;;;;;;20.48;8.70;;;;;;;-6.54;70.40;98158.84;4882474;29;20463;-63
2022/01/04 14:47:45;;;;;;;24.67;11.05;;;;;;;-6.72;69.91;98167.13;4882768;29;20039;-64
2022/01/04 14:50:10;;;;;;;27.50;11.70;;;;;;;-6.70;70.70;98178.31;4866594;29;20044;-67
2022/01/04 14:52:37;;;;;;;16.25;9.93;;;;;;;-6.46;70.08;98175.06;4883278;29;20047;-67
2022/01/04 14:55:05;;;;;;;19.15;9.85;;;;;;;-6.58;70.49;98174.53;4882758;29;20143;-68
2022/01/04 14:57:30;;;;;;;19.70;10.20;;;;;;;-6.65;70.60;98179.88;4882286;29;20710;-66
2022/01/04 14:59:56;;;;;;;22.23;11.45;;;;;;;-6.53;69.84;98188.22;4883112;29;20422;-67
2022/01/04 15:02:24;;;;;;;23.02;11.35;;;;;;;-6.52;70.14;98195.94;4866323;29;20139;-67
2022/01/04 15:04:49;;;;;;;12.23;6.80;;;;;;;-6.44;69.90;98188.84;4882763;29;20052;-72
2022/01/04 15:07:13;;;;;;;22.73;9.73;;;;;;;-6.49;69.59;98193.28;4865388;29;20535;-72
2022/01/04 15:09:38;;;;;;;17.52;8.10;;;;;;;-6.42;69.70;98189.63;4882277;29;20139;-73
2022/01/04 15:12:03;;;;;;;22.23;10.35;;;;;;;-6.39;69.74;98189.53;4882233;29;20199;-73
2022/01/04 15:14:28;;;;;;;27.92;13.25;;;;;;;-6.64;70.17;98201.44;4882583;29;20102;-70
2022/01/04 15:16:53;;;;;;;27.10;11.43;;;;;;;-6.62;70.85;98199.66;4865946;29;20036;-72
2022/01/04 15:19:17;;;;;;;15.55;8.73;;;;;;;-6.50;70.73;98199.34;4882975;29;20106;-75
2022/01/04 15:21:42;;;;;;;15.85;7.97;;;;;;;-6.35;70.17;98208.47;4865198;29;20081;-71
2022/01/04 15:24:08;;;;;;;21.00;10.57;;;;;;;-6.42;69.73;98192.22;4882153;29;20052;-70
2022/01/04 15:26:34;;;;;;;17.70;10.18;;;;;;;-6.57;70.21;98208.19;4882036;29;20068;-71
2022/01/04 15:28:59;;;;;;;20.50;10.10;;;;;;;-6.55;69.66;98208.16;4865197;29;20059;-70
2022/01/04 15:31:24;;;;;;;18.50;8.57;;;;;;;-6.43;69.45;98213.03;4882043;29;20126;-70
2022/01/04 15:33:49;;;;;;;15.50;8.50;;;;;;;-6.46;70.09;98213.94;4881782;29;20180;-70
2022/01/04 15:36:14;;;;;;;26.15;10.48;;;;;;;-6.52;69.69;98211.50;4882103;29;20138;-70
2022/01/04 15:38:38;;;;;;;16.33;9.32;;;;;;;-6.52;70.12;98211.50;4882793;29;20071;-68
2022/01/04 15:41:06;;;;;;;21.48;10.23;;;;;;;-6.54;70.49;98208.09;4882969;29;20048;-71
2022/01/04 15:43:32;;;;;;;20.55;10.30;;;;;;;-6.52;70.29;98211.50;4849883;29;20391;-72
2022/01/04 15:45:57;;;;;;;18.67;8.75;;;;;;;-6.51;69.67;98213.19;4850961;29;20091;-70
2022/01/04 15:48:25;;;;;;;23.05;13.52;;;;;;;-6.55;69.84;98210.75;4881578;29;20044;-70
2022/01/04 15:50:52;;;;;;;25.83;10.25;;;;;;;-6.52;69.76;98205.47;4865738;29;20532;-66
2022/01/04 15:53:18;;;;;;;19.35;8.57;;;;;;;-6.62;69.85;98200.53;4881731;29;20108;-68
2022/01/04 15:55:43;;;;;;;20.25;9.13;;;;;;;-6.66;69.72;98203.25;4834325;29;20055;-65
2022/01/04 15:58:11;;;;;;;17.58;6.78;;;;;;;-6.62;69.86;98207.44;4881519;29;20139;-65
2022/01/04 16:00:36;;;;;;;15.40;6.82;;;;;;;-6.55;69.83;98215.94;4864895;29;20051;-63
2022/01/04 16:03:04;;;;;;;25.98;11.95;;;;;;;-6.74;70.52;98208.59;4889303;29;20052;-64
2022/01/04 16:05:29;;;;;;;19.45;8.65;;;;;;;-6.62;69.77;98204.84;4874275;29;20130;-68
2022/01/04 16:07:54;;;;;;;19.85;9.35;;;;;;;-6.59;69.89;98199.59;4888468;29;20071;-66
2022/01/04 16:10:19;;;;;;;25.73;12.75;;;;;;;-6.82;70.91;98195.00;4873768;29;20043;-67
2022/01/04 16:12:45;;;;;;;23.58;13.18;;;;;;;-6.90;70.39;98199.53;4890973;29;20127;-65
2022/01/04 16:15:14;;;;;;;25.27;11.90;;;;;;;-6.90;70.91;98194.38;4879941;29;20134;-66
2022/01/04 16:17:51;;;;;;;23.35;10.80;;;;;;;-6.75;70.74;98196.53;4899919;29;20058;-66
2022/01/04 16:23:03;;;;;;;22.33;9.68;;;;;;;-6.74;70.91;98194.81;4843398;29;20447;-67
2022/01/04 16:25:28;;;;;;;25.67;11.85;;;;;;;-6.74;71.09;98192.22;4842264;29;20056;-64
2022/01/04 16:27:52;;;;;;;19.48;9.23;;;;;;;-6.65;70.54;98179.00;4841817;29;20100;-64
2022/01/04 16:30:21;;;;;;;17.15;8.88;;;;;;;-6.61;70.32;98183.22;4841379;29;20053;-65
2022/01/04 16:32:45;;;;;;;17.92;9.07;;;;;;;-6.68;71.01;98171.34;4841052;29;20435;-65
2022/01/04 16:35:13;;;;;;;20.25;10.45;;;;;;;-6.70;70.82;98178.31;4840914;29;20061;-64
2022/01/04 16:37:40;;;;;;;28.40;12.93;;;;;;;-6.77;70.91;98179.34;4841092;29;20152;-65
2022/01/04 16:40:10;;;;;;;25.88;11.77;;;;;;;-6.80;71.14;98180.28;4841383;29;20065;-63
2022/01/04 16:42:35;;;;;;;30.52;11.77;;;;;;;-6.81;70.70;98176.00;4841679;29;20051;-63
2022/01/04 16:45:00;;;;;;;27.38;14.40;;;;;;;-6.89;71.38;98179.66;4840947;29;20045;-65
2022/01/04 16:47:25;;;;;;;23.83;11.43;;;;;;;-6.78;71.12;98180.25;4840803;29;20051;-64
2022/01/04 16:49:53;;;;;;;21.85;10.68;;;;;;;-6.62;70.90;98184.97;4825336;29;20041;-63
2022/01/04 16:52:19;;;;;;;16.83;8.82;;;;;;;-6.45;69.86;98183.69;4875103;29;20415;-65
2022/01/04 16:54:43;;;;;;;17.95;9.90;;;;;;;-6.53;69.65;98188.22;4880115;29;20044;-63
2022/01/04 16:57:09;;;;;;;15.77;7.53;;;;;;;-6.53;70.16;98178.69;4880653;29;20059;-63
2022/01/04 16:59:33;;;;;;;14.43;7.43;;;;;;;-6.66;69.71;98175.56;4880427;29;20125;-65
2022/01/04 17:01:58;;;;;;;21.80;11.25;;;;;;;-6.70;69.88;98173.13;4864784;29;20079;-65
2022/01/04 17:04:28;;;;;;;15.68;7.45;;;;;;;-6.68;70.71;98179.13;4863686;29;20127;-64
2022/01/04 17:06:54;;;;;;;20.15;10.75;;;;;;;-6.72;70.49;98182.66;4862632;29;20540;-67
2022/01/04 17:09:22;;;;;;;16.85;8.32;;;;;;;-6.71;70.08;98184.38;4866999;29;20457;-65
2022/01/04 17:11:51;;;;;;;16.92;8.13;;;;;;;-6.66;70.17;98187.72;4870544;29;20040;-68
2022/01/04 17:16:59;;;;;;;25.20;11.63;;;;;;;-6.91;70.41;98182.28;4871618;29;20107;-65
2022/01/04 17:19:24;;;;;;;28.02;12.90;;;;;;;-6.88;70.97;98182.19;4865478;29;20067;-69
2022/01/04 17:21:49;;;;;;;16.27;6.90;;;;;;;-6.82;71.26;98183.78;4868469;29;20044;-67
2022/01/04 17:24:14;;;;;;;24.92;13.50;;;;;;;-6.91;71.55;98192.66;4868090;29;20051;-67
2022/01/04 17:26:40;;;;;;;21.10;10.35;;;;;;;-6.83;70.88;98197.63;4856824;29;20040;-67
2022/01/04 17:29:05;;;;;;;10.48;5.65;;;;;;;-6.68;70.85;98190.34;4866101;29;20055;-66
2022/01/04 17:31:30;;;;;;;12.10;5.95;;;;;;;-6.57;70.76;98189.19;4868568;29;20047;-70
2022/01/04 17:33:55;;;;;;;24.45;13.88;;;;;;;-6.89;70.88;98197.81;4870521;29;20044;-66
2022/01/04 17:36:20;;;;;;;28.23;12.95;;;;;;;-6.86;70.95;98197.69;4869130;29;20080;-65
2022/01/04 17:38:45;;;;;;;24.52;8.65;;;;;;;-6.68;70.54;98199.84;4854271;29;20468;-68
2022/01/04 17:41:10;;;;;;;24.08;10.30;;;;;;;-6.79;70.98;98194.94;4859396;29;20396;-67
2022/01/04 17:43:36;;;;;;;29.48;13.45;;;;;;;-7.06;71.28;98204.22;4862827;29;20491;-67
2022/01/04 17:46:02;;;;;;;25.17;11.18;;;;;;;-7.00;71.60;98208.44;4869278;29;20593;-71
2022/01/04 17:48:28;;;;;;;23.65;11.55;;;;;;;-6.97;71.26;98216.97;4871144;29;20048;-70
2022/01/04 17:50:54;;;;;;;15.85;7.88;;;;;;;-6.89;71.26;98206.44;4880192;29;20122;-73
2022/01/04 17:53:19;;;;;;;20.92;9.27;;;;;;;-6.71;71.28;98199.91;4867418;29;20048;-66
2022/01/04 17:55:44;;;;;;;22.65;11.15;;;;;;;-6.76;70.38;98201.75;4861006;29;20055;-72
2022/01/04 17:58:09;;;;;;;25.83;13.05;;;;;;;-6.93;71.22;98206.53;4860284;29;20118;-71
2022/01/04 18:00:35;;;;;;;18.73;9.68;;;;;;;-6.94;71.53;98194.47;4860690;29;20036;-73
2022/01/04 18:03:00;;;;;;;22.05;10.55;;;;;;;-6.90;71.28;98199.53;4859709;29;20040;-75
2022/01/04 18:05:27;;;;;;;27.50;12.60;;;;;;;-7.12;72.15;98198.38;4862045;29;20047;-74
2022/01/04 18:07:52;;;;;;;19.92;8.95;;;;;;;-6.98;71.56;98186.75;4860803;29;20103;-70
2022/01/04 18:10:19;;;;;;;27.85;12.00;;;;;;;-7.09;71.64;98181.00;4860802;29;20048;-68
2022/01/04 18:12:44;;;;;;;28.90;14.65;;;;;;;-7.21;72.50;98191.66;4861273;29;20044;-72
2022/01/04 18:15:10;;;;;;;34.00;15.80;;;;;;;-7.21;72.84;98186.47;4862263;29;20270;-72
2022/01/04 18:17:35;;;;;;;31.88;13.77;;;;;;;-7.18;73.46;98186.41;4861190;29;20464;-74
2022/01/04 18:20:00;;;;;;;27.23;13.60;;;;;;;-7.16;72.78;98178.59;4860437;29;20508;-67
2022/01/04 18:22:25;;;;;;;22.90;10.80;;;;;;;-7.01;73.27;98186.84;4860678;29;20076;-68
2022/01/04 18:24:50;;;;;;;18.23;10.82;;;;;;;-6.97;72.52;98192.78;4861515;29;20388;-71
2022/01/04 18:27:15;;;;;;;27.30;13.15;;;;;;;-6.79;71.54;98181.97;4861432;29;20410;-74
2022/01/04 18:29:40;;;;;;;18.02;9.07;;;;;;;-6.75;71.33;98180.16;4865675;29;20100;-69
2022/01/04 18:32:05;;;;;;;25.23;11.73;;;;;;;-6.88;72.06;98176.19;4869140;29;20050;-68
2022/01/04 18:34:30;;;;;;;24.02;11.25;;;;;;;-6.94;72.58;98186.69;4869199;29;20566;-71
2022/01/04 18:36:55;;;;;;;23.63;11.13;;;;;;;-6.87;72.34;98181.31;4870295;29;20414;-72
2022/01/04 18:39:20;;;;;;;27.92;14.90;;;;;;;-6.93;72.27;98185.81;4872981;29;20155;-69
2022/01/04 18:41:45;;;;;;;28.02;12.00;;;;;;;-6.88;71.55;98192.56;4873185;29;20078;-71
2022/01/04 18:44:09;;;;;;;15.05;6.80;;;;;;;-6.78;71.98;98177.66;4878574;29;20140;-69
2022/01/04 18:46:34;;;;;;;25.73;12.07;;;;;;;-7.02;71.88;98173.94;4891551;29;20039;-69
2022/01/04 18:48:59;;;;;;;20.38;8.43;;;;;;;-6.90;72.32;98183.16;4892274;29;20127;-71